sensor_id;sensor_type;location;lat;lon;timestamp;pressure;altitude;pressure_sealevel;temperature;humidity
78845;BME280;68195;50.854;2.860;2023-09-19T00:01:34;100889.63;;;15.07;100.00
78845;BME280;68195;50.854;2.860;2023-09-19T00:04:02;100890.81;;;15.03;100.00
78845;BME280;68195;50.854;2.860;2023-09-19T00:06:31;100851.06;;;14.81;100.00
78845;BME280;68195;50.854;2.860;2023-09-19T00:08:57;100888.44;;;14.98;100.00
78845;BME280;68195;50.854;2.860;2023-09-19T00:11:27;100886.47;;;15.02;100.00
78845;BME280;68195;50.854;2.860;2023-09-19T00:13:54;100872.56;;;15.00;100.00
78845;BME280;68195;50.854;2.860;2023-09-19T00:16:22;100887.22;;;15.04;100.00
78845;BME280;68195;50.854;2.860;2023-09-19T00:18:48;100875.44;;;14.97;100.00
78845;BME280;68195;50.854;2.860;2023-09-19T00:21:14;100866.22;;;14.90;100.00
78845;BME280;68195;50.854;2.860;2023-09-19T00:23:40;100888.47;;;15.11;100.00
78845;BME280;68195;50.854;2.860;2023-09-19T00:26:06;100897.72;;;15.04;100.00
78845;BME280;68195;50.854;2.860;2023-09-19T00:28:31;100861.38;;;14.84;100.00
78845;BME280;68195;50.854;2.860;2023-09-19T00:30:57;100861.59;;;14.81;100.00
78845;BME280;68195;50.854;2.860;2023-09-19T00:33:27;100899.28;;;14.94;100.00
78845;BME280;68195;50.854;2.860;2023-09-19T00:35:56;100894.09;;;14.80;100.00
78845;BME280;68195;50.854;2.860;2023-09-19T00:38:22;100910.75;;;14.93;100.00
78845;BME280;68195;50.854;2.860;2023-09-19T00:40:52;100897.34;;;14.83;100.00
78845;BME280;68195;50.854;2.860;2023-09-19T00:43:18;100903.25;;;14.87;100.00
78845;BME280;68195;50.854;2.860;2023-09-19T00:45:51;100887.50;;;14.45;100.00
78845;BME280;68195;50.854;2.860;2023-09-19T00:48:19;100902.56;;;14.70;100.00
78845;BME280;68195;50.854;2.860;2023-09-19T00:50:48;100903.53;;;14.69;100.00
78845;BME280;68195;50.854;2.860;2023-09-19T00:53:19;100883.69;;;14.22;100.00
78845;BME280;68195;50.854;2.860;2023-09-19T00:55:46;100909.91;;;14.51;100.00
78845;BME280;68195;50.854;2.860;2023-09-19T00:58:12;100895.06;;;14.64;100.00
78845;BME280;68195;50.854;2.860;2023-09-19T01:00:37;100926.09;;;14.86;100.00
78845;BME280;68195;50.854;2.860;2023-09-19T01:03:03;100931.22;;;14.88;100.00
78845;BME280;68195;50.854;2.860;2023-09-19T01:05:33;100922.63;;;14.98;100.00
78845;BME280;68195;50.854;2.860;2023-09-19T01:07:58;100897.31;;;14.70;100.00
78845;BME280;68195;50.854;2.860;2023-09-19T01:10:24;100925.44;;;14.83;100.00
78845;BME280;68195;50.854;2.860;2023-09-19T01:13:10;100922.06;;;14.81;100.00
78845;BME280;68195;50.854;2.860;2023-09-19T01:29:41;100924.44;;;14.98;100.00
78845;BME280;68195;50.854;2.860;2023-09-19T01:32:10;100913.03;;;14.85;100.00
78845;BME280;68195;50.854;2.860;2023-09-19T01:34:49;100935.91;;;14.97;100.00
78845;BME280;68195;50.854;2.860;2023-09-19T01:37:21;100927.84;;;14.86;100.00
78845;BME280;68195;50.854;2.860;2023-09-19T01:39:58;100900.53;;;14.61;100.00
78845;BME280;68195;50.854;2.860;2023-09-19T01:42:59;100929.91;;;14.95;100.00
78845;BME280;68195;50.854;2.860;2023-09-19T01:48:08;100926.78;;;14.75;100.00
78845;BME280;68195;50.854;2.860;2023-09-19T01:51:01;100908.16;;;14.79;100.00
78845;BME280;68195;50.854;2.860;2023-09-19T01:53:50;100927.38;;;14.93;100.00
78845;BME280;68195;50.854;2.860;2023-09-19T01:56:28;100902.69;;;14.69;100.00
78845;BME280;68195;50.854;2.860;2023-09-19T01:59:01;100915.13;;;14.80;100.00
78845;BME280;68195;50.854;2.860;2023-09-19T02:01:29;100921.47;;;14.90;100.00
78845;BME280;68195;50.854;2.860;2023-09-19T02:03:56;100918.09;;;14.88;100.00
78845;BME280;68195;50.854;2.860;2023-09-19T02:06:23;100894.50;;;14.73;100.00
78845;BME280;68195;50.854;2.860;2023-09-19T02:08:53;100919.56;;;14.92;100.00
78845;BME280;68195;50.854;2.860;2023-09-19T02:11:18;100918.91;;;14.75;100.00
78845;BME280;68195;50.854;2.860;2023-09-19T02:13:44;100922.84;;;14.95;100.00
78845;BME280;68195;50.854;2.860;2023-09-19T02:16:12;100910.97;;;15.03;100.00
78845;BME280;68195;50.854;2.860;2023-09-19T02:18:38;100912.25;;;14.97;100.00
78845;BME280;68195;50.854;2.860;2023-09-19T02:21:06;100922.59;;;15.13;100.00
78845;BME280;68195;50.854;2.860;2023-09-19T02:23:33;100933.28;;;14.97;100.00
78845;BME280;68195;50.854;2.860;2023-09-19T02:25:58;100932.16;;;15.14;100.00
78845;BME280;68195;50.854;2.860;2023-09-19T02:28:28;100920.91;;;15.12;100.00
78845;BME280;68195;50.854;2.860;2023-09-19T02:30:59;100922.50;;;15.14;100.00
78845;BME280;68195;50.854;2.860;2023-09-19T02:33:25;100891.78;;;14.88;100.00
78845;BME280;68195;50.854;2.860;2023-09-19T02:35:54;100939.59;;;15.07;100.00
78845;BME280;68195;50.854;2.860;2023-09-19T02:38:22;100928.41;;;14.91;100.00
78845;BME280;68195;50.854;2.860;2023-09-19T02:40:51;100924.44;;;14.98;100.00
78845;BME280;68195;50.854;2.860;2023-09-19T02:43:20;100919.78;;;14.89;100.00
78845;BME280;68195;50.854;2.860;2023-09-19T02:45:45;100941.91;;;14.99;100.00
78845;BME280;68195;50.854;2.860;2023-09-19T02:48:19;100945.91;;;15.05;100.00
78845;BME280;68195;50.854;2.860;2023-09-19T02:50:49;100908.03;;;14.67;100.00
78845;BME280;68195;50.854;2.860;2023-09-19T02:53:16;100921.53;;;14.75;100.00
78845;BME280;68195;50.854;2.860;2023-09-19T02:55:44;100938.53;;;14.97;100.00
78845;BME280;68195;50.854;2.860;2023-09-19T02:58:12;100931.88;;;14.91;100.00
78845;BME280;68195;50.854;2.860;2023-09-19T03:00:39;100899.69;;;14.61;100.00
78845;BME280;68195;50.854;2.860;2023-09-19T03:03:07;100912.53;;;14.65;100.00
78845;BME280;68195;50.854;2.860;2023-09-19T03:05:34;100941.22;;;14.83;100.00
78845;BME280;68195;50.854;2.860;2023-09-19T03:07:59;100935.97;;;14.83;100.00
78845;BME280;68195;50.854;2.860;2023-09-19T03:10:29;100934.53;;;14.50;100.00
78845;BME280;68195;50.854;2.860;2023-09-19T03:12:58;100939.22;;;14.59;100.00
78845;BME280;68195;50.854;2.860;2023-09-19T03:15:25;100927.72;;;14.74;100.00
78845;BME280;68195;50.854;2.860;2023-09-19T03:17:50;100926.34;;;14.69;100.00
78845;BME280;68195;50.854;2.860;2023-09-19T03:20:21;100898.31;;;14.41;100.00
78845;BME280;68195;50.854;2.860;2023-09-19T03:22:50;100897.22;;;14.30;100.00
78845;BME280;68195;50.854;2.860;2023-09-19T03:25:15;100902.84;;;14.24;100.00
78845;BME280;68195;50.854;2.860;2023-09-19T03:27:42;100928.38;;;14.22;100.00
78845;BME280;68195;50.854;2.860;2023-09-19T03:30:07;100942.50;;;14.48;100.00
78845;BME280;68195;50.854;2.860;2023-09-19T03:32:47;100945.63;;;14.41;100.00
78845;BME280;68195;50.854;2.860;2023-09-19T03:35:15;100916.88;;;14.38;100.00
78845;BME280;68195;50.854;2.860;2023-09-19T03:37:41;100940.41;;;14.53;100.00
78845;BME280;68195;50.854;2.860;2023-09-19T03:40:10;100938.56;;;14.27;100.00
78845;BME280;68195;50.854;2.860;2023-09-19T03:42:40;100924.06;;;14.07;100.00
78845;BME280;68195;50.854;2.860;2023-09-19T03:45:09;100939.78;;;14.35;100.00
78845;BME280;68195;50.854;2.860;2023-09-19T03:47:41;100898.81;;;14.19;100.00
78845;BME280;68195;50.854;2.860;2023-09-19T03:50:07;100891.41;;;13.97;100.00
78845;BME280;68195;50.854;2.860;2023-09-19T03:52:34;100936.63;;;14.16;100.00
78845;BME280;68195;50.854;2.860;2023-09-19T03:54:59;100928.00;;;14.00;100.00
78845;BME280;68195;50.854;2.860;2023-09-19T03:57:25;100931.56;;;14.13;100.00
78845;BME280;68195;50.854;2.860;2023-09-19T03:59:50;100924.44;;;14.15;100.00
78845;BME280;68195;50.854;2.860;2023-09-19T04:02:18;100925.34;;;14.14;100.00
78845;BME280;68195;50.854;2.860;2023-09-19T04:04:53;100905.22;;;14.00;100.00
78845;BME280;68195;50.854;2.860;2023-09-19T04:07:21;100940.91;;;14.31;100.00
78845;BME280;68195;50.854;2.860;2023-09-19T04:09:47;100910.34;;;14.16;100.00
78845;BME280;68195;50.854;2.860;2023-09-19T04:12:15;100943.81;;;14.41;100.00
78845;BME280;68195;50.854;2.860;2023-09-19T04:14:44;100941.88;;;14.30;100.00
78845;BME280;68195;50.854;2.860;2023-09-19T04:17:09;100937.53;;;14.44;100.00
78845;BME280;68195;50.854;2.860;2023-09-19T04:19:38;100894.72;;;14.00;100.00
78845;BME280;68195;50.854;2.860;2023-09-19T04:22:03;100899.69;;;14.05;100.00
78845;BME280;68195;50.854;2.860;2023-09-19T04:24:31;100904.56;;;13.97;100.00
78845;BME280;68195;50.854;2.860;2023-09-19T04:26:57;100946.94;;;14.19;100.00
78845;BME280;68195;50.854;2.860;2023-09-19T04:29:24;100939.31;;;14.14;100.00
78845;BME280;68195;50.854;2.860;2023-09-19T04:31:51;100944.69;;;14.13;100.00
78845;BME280;68195;50.854;2.860;2023-09-19T04:34:17;100957.84;;;14.13;100.00
78845;BME280;68195;50.854;2.860;2023-09-19T04:36:45;100929.31;;;14.07;100.00
78845;BME280;68195;50.854;2.860;2023-09-19T04:39:10;100961.00;;;14.18;100.00
78845;BME280;68195;50.854;2.860;2023-09-19T04:41:37;100959.59;;;14.27;100.00
78845;BME280;68195;50.854;2.860;2023-09-19T04:44:06;100955.38;;;14.24;100.00
78845;BME280;68195;50.854;2.860;2023-09-19T04:46:33;100955.47;;;13.94;100.00
78845;BME280;68195;50.854;2.860;2023-09-19T04:49:01;100929.03;;;13.97;100.00
78845;BME280;68195;50.854;2.860;2023-09-19T04:51:29;100929.31;;;13.92;100.00
78845;BME280;68195;50.854;2.860;2023-09-19T04:54:00;100940.56;;;14.09;100.00
78845;BME280;68195;50.854;2.860;2023-09-19T04:56:25;100959.03;;;14.22;100.00
78845;BME280;68195;50.854;2.860;2023-09-19T04:58:51;100966.56;;;14.28;100.00
78845;BME280;68195;50.854;2.860;2023-09-19T05:01:16;100928.44;;;14.21;100.00
78845;BME280;68195;50.854;2.860;2023-09-19T05:03:44;100967.09;;;14.47;100.00
78845;BME280;68195;50.854;2.860;2023-09-19T05:06:17;100955.84;;;14.31;100.00
78845;BME280;68195;50.854;2.860;2023-09-19T05:08:48;100933.97;;;14.30;100.00
78845;BME280;68195;50.854;2.860;2023-09-19T05:11:20;100945.78;;;14.38;100.00
78845;BME280;68195;50.854;2.860;2023-09-19T05:13:53;100943.91;;;14.40;100.00
78845;BME280;68195;50.854;2.860;2023-09-19T05:16:21;100932.19;;;14.16;100.00
78845;BME280;68195;50.854;2.860;2023-09-19T05:18:49;100961.22;;;14.15;100.00
78845;BME280;68195;50.854;2.860;2023-09-19T05:21:14;100964.38;;;14.20;100.00
78845;BME280;68195;50.854;2.860;2023-09-19T05:23:40;100962.41;;;14.09;100.00
78845;BME280;68195;50.854;2.860;2023-09-19T05:26:06;100956.78;;;14.30;100.00
78845;BME280;68195;50.854;2.860;2023-09-19T05:28:33;100967.22;;;14.17;100.00
78845;BME280;68195;50.854;2.860;2023-09-19T05:31:00;100951.66;;;14.00;100.00
78845;BME280;68195;50.854;2.860;2023-09-19T05:33:27;100964.00;;;14.12;100.00
78845;BME280;68195;50.854;2.860;2023-09-19T05:35:52;100960.56;;;14.26;100.00
78845;BME280;68195;50.854;2.860;2023-09-19T05:38:19;100947.22;;;14.29;100.00
78845;BME280;68195;50.854;2.860;2023-09-19T05:40:47;100953.69;;;14.23;100.00
78845;BME280;68195;50.854;2.860;2023-09-19T05:43:13;100960.34;;;14.29;100.00
78845;BME280;68195;50.854;2.860;2023-09-19T05:45:41;100935.50;;;14.06;100.00
78845;BME280;68195;50.854;2.860;2023-09-19T05:48:18;100935.69;;;14.03;100.00
78845;BME280;68195;50.854;2.860;2023-09-19T05:50:48;100960.81;;;14.07;100.00
78845;BME280;68195;50.854;2.860;2023-09-19T05:53:19;100975.56;;;14.24;100.00
78845;BME280;68195;50.854;2.860;2023-09-19T05:55:46;100973.88;;;14.08;100.00
78845;BME280;68195;50.854;2.860;2023-09-19T05:58:14;100972.09;;;14.09;100.00
78845;BME280;68195;50.854;2.860;2023-09-19T06:00:45;100961.00;;;14.18;100.00
78845;BME280;68195;50.854;2.860;2023-09-19T06:03:16;100963.06;;;14.27;100.00
78845;BME280;68195;50.854;2.860;2023-09-19T06:05:44;100956.13;;;14.12;100.00
78845;BME280;68195;50.854;2.860;2023-09-19T06:08:13;100944.78;;;14.11;100.00
78845;BME280;68195;50.854;2.860;2023-09-19T06:10:41;100949.66;;;14.18;100.00
78845;BME280;68195;50.854;2.860;2023-09-19T06:13:09;100976.47;;;14.37;100.00
78845;BME280;68195;50.854;2.860;2023-09-19T06:15:35;100955.94;;;14.29;100.00
78845;BME280;68195;50.854;2.860;2023-09-19T10:33:04;100805.00;;;18.65;100.00
78845;BME280;68195;50.854;2.860;2023-09-19T10:35:33;100889.63;;;19.30;100.00
78845;BME280;68195;50.854;2.860;2023-09-19T10:38:03;100907.78;;;19.35;100.00
78845;BME280;68195;50.854;2.860;2023-09-19T10:40:32;100917.53;;;19.55;100.00
78845;BME280;68195;50.854;2.860;2023-09-19T10:43:17;100903.81;;;19.50;100.00
78845;BME280;68195;50.854;2.860;2023-09-19T10:45:47;100909.97;;;19.72;100.00
78845;BME280;68195;50.854;2.860;2023-09-19T10:48:18;100931.34;;;19.80;100.00
78845;BME280;68195;50.854;2.860;2023-09-19T10:51:12;100919.50;;;19.74;100.00
78845;BME280;68195;50.854;2.860;2023-09-19T10:53:56;100916.44;;;19.58;100.00
78845;BME280;68195;50.854;2.860;2023-09-19T10:56:35;100899.28;;;19.31;100.00
78845;BME280;68195;50.854;2.860;2023-09-19T11:01:55;100913.59;;;19.29;100.00
78845;BME280;68195;50.854;2.860;2023-09-19T11:04:32;100923.44;;;19.38;100.00
78845;BME280;68195;50.854;2.860;2023-09-19T11:07:02;100925.41;;;19.45;100.00
78845;BME280;68195;50.854;2.860;2023-09-19T11:09:56;100921.09;;;19.65;100.00
78845;BME280;68195;50.854;2.860;2023-09-19T11:14:58;100898.41;;;19.73;100.00
78845;BME280;68195;50.854;2.860;2023-09-19T11:23:16;100905.66;;;19.50;100.00
78845;BME280;68195;50.854;2.860;2023-09-19T11:25:43;100906.75;;;19.47;100.00
78845;BME280;68195;50.854;2.860;2023-09-19T11:28:28;100871.28;;;19.38;100.00
78845;BME280;68195;50.854;2.860;2023-09-19T11:30:55;100892.16;;;19.32;100.00
78845;BME280;68195;50.854;2.860;2023-09-19T11:49:19;100899.38;;;19.30;100.00
78845;BME280;68195;50.854;2.860;2023-09-19T11:51:50;100847.47;;;19.17;100.00
78845;BME280;68195;50.854;2.860;2023-09-19T11:54:20;100863.75;;;19.13;99.53
78845;BME280;68195;50.854;2.860;2023-09-19T11:56:53;100896.03;;;19.27;100.00
78845;BME280;68195;50.854;2.860;2023-09-19T11:59:30;100890.53;;;19.40;100.00
78845;BME280;68195;50.854;2.860;2023-09-19T12:01:58;100901.84;;;19.63;100.00
78845;BME280;68195;50.854;2.860;2023-09-19T12:07:11;100897.75;;;19.80;98.62
78845;BME280;68195;50.854;2.860;2023-09-19T12:09:41;100880.75;;;19.62;100.00
78845;BME280;68195;50.854;2.860;2023-09-19T12:12:39;100776.38;;;19.13;99.28
78845;BME280;68195;50.854;2.860;2023-09-19T12:15:05;100901.97;;;19.83;98.62
78845;BME280;68195;50.854;2.860;2023-09-19T12:17:37;100901.25;;;19.81;99.83
78845;BME280;68195;50.854;2.860;2023-09-19T12:20:06;100895.94;;;19.81;99.35
78845;BME280;68195;50.854;2.860;2023-09-19T12:22:45;100884.00;;;19.44;99.56
78845;BME280;68195;50.854;2.860;2023-09-19T12:25:14;100884.41;;;19.40;99.96
78845;BME280;68195;50.854;2.860;2023-09-19T12:27:45;100884.84;;;19.45;100.00
78845;BME280;68195;50.854;2.860;2023-09-19T12:30:27;100877.41;;;19.39;99.73
78845;BME280;68195;50.854;2.860;2023-09-19T12:32:53;100874.06;;;19.37;100.00
78845;BME280;68195;50.854;2.860;2023-09-19T12:35:31;100866.78;;;19.29;100.00
78845;BME280;68195;50.854;2.860;2023-09-19T12:38:02;100851.44;;;19.33;100.00
78845;BME280;68195;50.854;2.860;2023-09-19T12:40:29;100847.53;;;19.27;99.25
78845;BME280;68195;50.854;2.860;2023-09-19T12:43:01;100883.09;;;19.55;99.88
78845;BME280;68195;50.854;2.860;2023-09-19T12:45:31;100850.00;;;19.19;99.47
78845;BME280;68195;50.854;2.860;2023-09-19T12:51:08;100906.31;;;19.42;100.00
78845;BME280;68195;50.854;2.860;2023-09-19T12:53:57;100889.91;;;19.27;100.00
78845;BME280;68195;50.854;2.860;2023-09-19T12:56:23;100898.47;;;19.19;100.00
78845;BME280;68195;50.854;2.860;2023-09-19T12:58:54;100899.38;;;19.30;100.00
78845;BME280;68195;50.854;2.860;2023-09-19T13:01:23;100904.69;;;19.30;100.00
78845;BME280;68195;50.854;2.860;2023-09-19T13:04:17;100889.38;;;19.12;100.00
78845;BME280;68195;50.854;2.860;2023-09-19T13:07:05;100855.75;;;19.03;100.00
78845;BME280;68195;50.854;2.860;2023-09-19T13:09:37;100873.09;;;19.17;100.00
78845;BME280;68195;50.854;2.860;2023-09-19T13:12:05;100824.09;;;19.01;100.00
78845;BME280;68195;50.854;2.860;2023-09-19T13:15:08;100883.13;;;19.34;100.00
78845;BME280;68195;50.854;2.860;2023-09-19T13:17:48;100864.34;;;19.16;99.87
78845;BME280;68195;50.854;2.860;2023-09-19T13:20:21;100859.09;;;19.05;100.00
78845;BME280;68195;50.854;2.860;2023-09-19T13:22:55;100868.84;;;19.04;100.00
78845;BME280;68195;50.854;2.860;2023-09-19T13:25:34;100863.53;;;18.83;100.00
78845;BME280;68195;50.854;2.860;2023-09-19T13:28:00;100899.16;;;19.00;100.00
78845;BME280;68195;50.854;2.860;2023-09-19T13:30:29;100897.22;;;19.14;100.00
78845;BME280;68195;50.854;2.860;2023-09-19T13:33:10;100890.41;;;19.00;100.00
78845;BME280;68195;50.854;2.860;2023-09-19T13:35:44;100875.81;;;19.05;100.00
78845;BME280;68195;50.854;2.860;2023-09-19T13:38:10;100892.78;;;19.24;100.00
78845;BME280;68195;50.854;2.860;2023-09-19T13:40:36;100893.25;;;19.29;100.00
78845;BME280;68195;50.854;2.860;2023-09-19T13:43:04;100879.88;;;19.31;100.00
78845;BME280;68195;50.854;2.860;2023-09-19T13:45:32;100862.38;;;19.39;100.00
78845;BME280;68195;50.854;2.860;2023-09-19T13:47:57;100891.22;;;19.63;100.00
78845;BME280;68195;50.854;2.860;2023-09-19T13:50:24;100857.25;;;19.47;100.00
78845;BME280;68195;50.854;2.860;2023-09-19T13:52:51;100884.25;;;19.62;100.00
78845;BME280;68195;50.854;2.860;2023-09-19T13:55:17;100873.91;;;19.59;100.00
78845;BME280;68195;50.854;2.860;2023-09-19T13:57:49;100857.41;;;19.46;100.00
78845;BME280;68195;50.854;2.860;2023-09-19T14:00:22;100881.59;;;19.62;100.00
78845;BME280;68195;50.854;2.860;2023-09-19T14:02:48;100876.81;;;19.56;100.00
78845;BME280;68195;50.854;2.860;2023-09-19T14:05:16;100839.91;;;19.13;100.00
78845;BME280;68195;50.854;2.860;2023-09-19T14:07:44;100868.06;;;19.35;100.00
78845;BME280;68195;50.854;2.860;2023-09-19T14:10:12;100878.72;;;19.44;100.00
78845;BME280;68195;50.854;2.860;2023-09-19T14:12:40;100790.34;;;18.94;100.00
78845;BME280;68195;50.854;2.860;2023-09-19T14:15:12;100875.94;;;19.46;100.00
78845;BME280;68195;50.854;2.860;2023-09-19T14:17:39;100881.25;;;19.25;100.00
78845;BME280;68195;50.854;2.860;2023-09-19T14:20:09;100837.94;;;19.05;100.00
78845;BME280;68195;50.854;2.860;2023-09-19T14:22:36;100863.16;;;19.09;100.00
78845;BME280;68195;50.854;2.860;2023-09-19T14:25:04;100865.94;;;19.08;100.00
78845;BME280;68195;50.854;2.860;2023-09-19T14:27:30;100822.19;;;18.71;100.00
78845;BME280;68195;50.854;2.860;2023-09-19T14:29:58;100855.75;;;18.71;100.00
78845;BME280;68195;50.854;2.860;2023-09-19T14:32:26;100825.28;;;18.55;100.00
78845;BME280;68195;50.854;2.860;2023-09-19T14:34:51;100901.47;;;19.05;100.00
78845;BME280;68195;50.854;2.860;2023-09-19T14:37:17;100864.00;;;18.77;100.00
78845;BME280;68195;50.854;2.860;2023-09-19T14:39:46;100833.69;;;18.49;100.00
78845;BME280;68195;50.854;2.860;2023-09-19T14:42:14;100901.31;;;18.85;100.00
78845;BME280;68195;50.854;2.860;2023-09-19T14:44:45;100909.91;;;18.99;100.00
78845;BME280;68195;50.854;2.860;2023-09-19T14:47:12;100865.22;;;18.73;100.00
78845;BME280;68195;50.854;2.860;2023-09-19T14:49:41;100902.25;;;18.84;100.00
78845;BME280;68195;50.854;2.860;2023-09-19T14:52:08;100858.06;;;18.53;100.00
78845;BME280;68195;50.854;2.860;2023-09-19T14:54:34;100853.66;;;18.53;100.00
78845;BME280;68195;50.854;2.860;2023-09-19T14:57:00;100896.38;;;18.81;100.00
78845;BME280;68195;50.854;2.860;2023-09-19T14:59:34;100886.50;;;18.83;100.00
78845;BME280;68195;50.854;2.860;2023-09-19T15:02:04;100878.69;;;18.70;100.00
78845;BME280;68195;50.854;2.860;2023-09-19T15:04:32;100884.47;;;18.75;100.00
78845;BME280;68195;50.854;2.860;2023-09-19T15:06:58;100892.19;;;18.67;100.00
78845;BME280;68195;50.854;2.860;2023-09-19T15:09:28;100823.31;;;18.25;100.00
78845;BME280;68195;50.854;2.860;2023-09-19T15:11:55;100872.63;;;18.58;100.00
78845;BME280;68195;50.854;2.860;2023-09-19T15:14:22;100866.72;;;18.55;100.00
78845;BME280;68195;50.854;2.860;2023-09-19T15:16:48;100859.50;;;18.57;100.00
78845;BME280;68195;50.854;2.860;2023-09-19T15:19:15;100861.31;;;18.56;100.00
78845;BME280;68195;50.854;2.860;2023-09-19T15:21:44;100857.50;;;18.49;100.00
78845;BME280;68195;50.854;2.860;2023-09-19T15:24:11;100868.81;;;18.40;100.00
78845;BME280;68195;50.854;2.860;2023-09-19T15:26:37;100871.06;;;18.56;100.00
78845;BME280;68195;50.854;2.860;2023-09-19T15:29:09;100868.41;;;18.56;100.00
78845;BME280;68195;50.854;2.860;2023-09-19T15:31:35;100849.09;;;18.44;100.00
78845;BME280;68195;50.854;2.860;2023-09-19T15:34:08;100879.78;;;18.68;100.00
78845;BME280;68195;50.854;2.860;2023-09-19T15:36:43;100883.53;;;18.65;100.00
78845;BME280;68195;50.854;2.860;2023-09-19T15:39:11;100887.16;;;18.64;100.00
78845;BME280;68195;50.854;2.860;2023-09-19T15:41:40;100803.69;;;17.84;100.00
78845;BME280;68195;50.854;2.860;2023-09-19T15:44:32;100866.56;;;18.24;100.00
78845;BME280;68195;50.854;2.860;2023-09-19T15:46:59;100884.81;;;18.38;100.00
78845;BME280;68195;50.854;2.860;2023-09-19T15:49:27;100896.25;;;18.28;100.00
78845;BME280;68195;50.854;2.860;2023-09-19T15:51:55;100845.47;;;18.01;100.00
78845;BME280;68195;50.854;2.860;2023-09-19T15:54:21;100830.56;;;17.67;100.00
78845;BME280;68195;50.854;2.860;2023-09-19T15:56:49;100894.22;;;18.20;100.00
78845;BME280;68195;50.854;2.860;2023-09-19T15:59:16;100888.47;;;18.03;100.00
78845;BME280;68195;50.854;2.860;2023-09-19T16:01:44;100890.50;;;18.11;100.00
78845;BME280;68195;50.854;2.860;2023-09-19T16:04:18;100897.22;;;18.15;100.00
78845;BME280;68195;50.854;2.860;2023-09-19T16:06:44;100890.75;;;18.08;100.00
78845;BME280;68195;50.854;2.860;2023-09-19T16:09:11;100902.16;;;18.09;100.00
78845;BME280;68195;50.854;2.860;2023-09-19T16:11:39;100890.41;;;18.01;100.00
78845;BME280;68195;50.854;2.860;2023-09-19T16:14:07;100864.19;;;17.98;100.00
78845;BME280;68195;50.854;2.860;2023-09-19T16:16:37;100833.44;;;17.75;100.00
78845;BME280;68195;50.854;2.860;2023-09-19T16:19:03;100874.28;;;18.04;100.00
78845;BME280;68195;50.854;2.860;2023-09-19T16:21:31;100864.09;;;17.89;100.00
78845;BME280;68195;50.854;2.860;2023-09-19T16:23:58;100790.59;;;17.49;100.00
78845;BME280;68195;50.854;2.860;2023-09-19T16:26:29;100865.88;;;17.88;100.00
78845;BME280;68195;50.854;2.860;2023-09-19T16:28:56;100860.59;;;17.99;100.00
78845;BME280;68195;50.854;2.860;2023-09-19T16:31:30;100862.75;;;17.94;100.00
78845;BME280;68195;50.854;2.860;2023-09-19T16:33:58;100858.47;;;17.82;100.00
78845;BME280;68195;50.854;2.860;2023-09-19T16:36:28;100875.03;;;17.95;100.00
78845;BME280;68195;50.854;2.860;2023-09-19T16:38:58;100874.53;;;17.90;100.00
78845;BME280;68195;50.854;2.860;2023-09-19T16:41:29;100851.19;;;17.73;100.00
78845;BME280;68195;50.854;2.860;2023-09-19T16:43:56;100874.78;;;17.87;100.00
78845;BME280;68195;50.854;2.860;2023-09-19T16:46:25;100866.69;;;17.77;100.00
78845;BME280;68195;50.854;2.860;2023-09-19T16:48:53;100855.28;;;17.54;100.00
78845;BME280;68195;50.854;2.860;2023-09-19T16:51:19;100860.09;;;17.72;100.00
78845;BME280;68195;50.854;2.860;2023-09-19T16:53:49;100858.19;;;17.62;100.00
78845;BME280;68195;50.854;2.860;2023-09-19T16:56:18;100875.22;;;17.70;100.00
78845;BME280;68195;50.854;2.860;2023-09-19T16:58:48;100880.03;;;17.76;100.00
78845;BME280;68195;50.854;2.860;2023-09-19T17:01:15;100866.84;;;17.65;100.00
78845;BME280;68195;50.854;2.860;2023-09-19T17:03:44;100875.69;;;17.75;100.00
78845;BME280;68195;50.854;2.860;2023-09-19T17:06:13;100760.69;;;17.03;100.00
78845;BME280;68195;50.854;2.860;2023-09-19T17:08:42;100813.00;;;17.32;100.00
78845;BME280;68195;50.854;2.860;2023-09-19T17:11:12;100882.06;;;17.72;100.00
78845;BME280;68195;50.854;2.860;2023-09-19T17:13:43;100886.88;;;17.78;100.00
78845;BME280;68195;50.854;2.860;2023-09-19T17:16:13;100871.53;;;17.83;100.00
78845;BME280;68195;50.854;2.860;2023-09-19T17:18:45;100837.28;;;17.59;100.00
78845;BME280;68195;50.854;2.860;2023-09-19T17:21:13;100843.28;;;17.50;100.00
78845;BME280;68195;50.854;2.860;2023-09-19T17:23:40;100814.00;;;17.31;100.00
78845;BME280;68195;50.854;2.860;2023-09-19T17:26:11;100866.94;;;17.74;100.00
78845;BME280;68195;50.854;2.860;2023-09-19T17:28:40;100875.59;;;17.76;100.00
78845;BME280;68195;50.854;2.860;2023-09-19T17:31:18;100853.97;;;17.60;100.00
78845;BME280;68195;50.854;2.860;2023-09-19T17:33:45;100806.06;;;17.19;100.00
78845;BME280;68195;50.854;2.860;2023-09-19T17:38:43;100877.41;;;17.65;100.00
78845;BME280;68195;50.854;2.860;2023-09-19T17:41:09;100860.81;;;17.74;100.00
78845;BME280;68195;50.854;2.860;2023-09-19T17:43:37;100845.09;;;17.72;100.00
78845;BME280;68195;50.854;2.860;2023-09-19T17:46:15;100851.69;;;17.78;100.00
78845;BME280;68195;50.854;2.860;2023-09-19T17:48:46;100841.84;;;17.69;100.00
78845;BME280;68195;50.854;2.860;2023-09-19T17:51:12;100848.47;;;17.63;100.00
78845;BME280;68195;50.854;2.860;2023-09-19T17:53:41;100852.41;;;17.69;100.00
78845;BME280;68195;50.854;2.860;2023-09-19T17:56:13;100797.19;;;17.32;100.00
78845;BME280;68195;50.854;2.860;2023-09-19T17:58:41;100861.19;;;17.69;100.00
78845;BME280;68195;50.854;2.860;2023-09-19T18:01:14;100867.06;;;17.73;100.00